createdAt,value
2023-05-15T00:01:41.102Z,98837.69
2023-05-15T00:04:09.104Z,98826.47
2023-05-15T00:06:42.392Z,98821.13
2023-05-15T00:09:12.102Z,98825.63
2023-05-15T00:11:47.973Z,98814.13
2023-05-15T00:14:17.409Z,98810.09
2023-05-15T00:16:47.647Z,98816.63
2023-05-15T00:19:17.011Z,98805.06
2023-05-15T00:21:59.411Z,98806.41
2023-05-15T00:24:28.826Z,98805.25
2023-05-15T00:27:06.724Z,98808.25
2023-05-15T00:29:40.795Z,98809.94
2023-05-15T00:32:09.769Z,98804.25
2023-05-15T00:34:40.050Z,98808.72
2023-05-15T00:37:09.416Z,98799.19
2023-05-15T00:39:38.550Z,98787.84
2023-05-15T00:42:16.610Z,98784.00
2023-05-15T00:44:48.243Z,98777.16
2023-05-15T00:47:19.237Z,98776.47
2023-05-15T00:49:50.799Z,98771.09
2023-05-15T00:52:27.465Z,98773.97
2023-05-15T00:55:01.458Z,98765.59
2023-05-15T00:57:46.018Z,98755.75
2023-05-15T01:00:18.746Z,98751.41
2023-05-15T01:02:52.044Z,98737.00
2023-05-15T01:05:23.925Z,98739.34
2023-05-15T01:07:58.602Z,98741.41
2023-05-15T01:10:27.903Z,98740.53
2023-05-15T01:13:00.054Z,98741.97
2023-05-15T01:15:31.803Z,98748.69
2023-05-15T01:18:01.527Z,98756.31
2023-05-15T01:20:38.043Z,98763.94
2023-05-15T01:23:27.630Z,98765.13
2023-05-15T01:26:29.734Z,98768.47
2023-05-15T01:29:02.963Z,98776.16
2023-05-15T01:31:36.156Z,98772.84
2023-05-15T01:34:17.116Z,98775.16
2023-05-15T01:36:54.662Z,98778.16
2023-05-15T01:39:30.298Z,98777.69
2023-05-15T01:42:11.844Z,98775.66
2023-05-15T01:44:52.529Z,98771.84
2023-05-15T01:47:32.294Z,98767.19
2023-05-15T01:50:08.721Z,98769.53
2023-05-15T01:52:43.016Z,98773.72
2023-05-15T01:55:13.348Z,98777.38
2023-05-15T01:57:43.390Z,98771.03
2023-05-15T02:00:20.549Z,98777.03
2023-05-15T02:02:52.149Z,98766.84
2023-05-15T02:05:21.385Z,98769.00
2023-05-15T02:07:50.992Z,98775.53
2023-05-15T02:10:28.341Z,98776.56
2023-05-15T02:12:58.095Z,98778.50
2023-05-15T02:15:49.802Z,98766.72
2023-05-15T02:18:19.713Z,98759.31
2023-05-15T02:20:51.662Z,98750.13
2023-05-15T02:23:28.048Z,98744.34
2023-05-15T02:26:18.730Z,98744.66
2023-05-15T02:29:03.085Z,98739.47
2023-05-15T02:31:37.163Z,98731.00
2023-05-15T02:34:14.625Z,98733.78
2023-05-15T02:36:50.238Z,98737.59
2023-05-15T02:39:25.514Z,98745.78
2023-05-15T02:41:55.064Z,98747.03
2023-05-15T02:44:32.213Z,98742.09
2023-05-15T02:47:07.638Z,98746.31
2023-05-15T02:49:38.426Z,98740.44
2023-05-15T02:52:10.579Z,98738.16
2023-05-15T02:54:41.420Z,98733.72
2023-05-15T02:57:13.276Z,98739.25
2023-05-15T02:59:43.222Z,98735.75
2023-05-15T03:02:14.911Z,98714.72
2023-05-15T03:04:43.449Z,98725.44
2023-05-15T03:07:14.086Z,98720.75
2023-05-15T03:09:44.212Z,98711.88
2023-05-15T03:12:21.834Z,98714.09
2023-05-15T03:14:59.238Z,98707.66
2023-05-15T03:17:31.475Z,98706.00
2023-05-15T03:20:00.551Z,98714.38
2023-05-15T03:22:31.563Z,98716.72
2023-05-15T03:25:01.843Z,98713.84
2023-05-15T03:27:33.066Z,98718.03
2023-05-15T03:30:01.404Z,98719.56
2023-05-15T03:32:35.624Z,98727.94
2023-05-15T03:35:05.547Z,98730.75
2023-05-15T03:37:37.769Z,98719.63
2023-05-15T03:40:08.649Z,98719.41
2023-05-15T03:42:43.607Z,98723.28
2023-05-15T03:45:21.515Z,98725.44
2023-05-15T03:48:01.266Z,98731.41
2023-05-15T03:50:31.586Z,98735.75
2023-05-15T03:53:09.580Z,98725.41
2023-05-15T03:55:48.156Z,98738.09
2023-05-15T03:58:25.837Z,98734.41
2023-05-15T04:00:56.696Z,98734.97
2023-05-15T04:03:32.234Z,98738.44
2023-05-15T04:06:02.551Z,98734.47
2023-05-15T04:08:32.026Z,98742.84
2023-05-15T04:11:07.930Z,98736.84
2023-05-15T04:13:41.203Z,98729.53
2023-05-15T04:16:12.247Z,98738.03
2023-05-15T04:18:44.605Z,98737.69
2023-05-15T04:21:20.478Z,98734.19
2023-05-15T04:23:51.826Z,98735.09
2023-05-15T04:26:22.702Z,98722.84
2023-05-15T04:29:04.330Z,98729.25
2023-05-15T04:31:45.981Z,98729.41
2023-05-15T04:34:17.403Z,98737.69
2023-05-15T04:36:48.564Z,98731.22
2023-05-15T04:39:22.693Z,98724.50
2023-05-15T04:41:53.429Z,98725.53
2023-05-15T04:44:22.815Z,98725.34
2023-05-15T04:46:52.201Z,98723.50
2023-05-15T04:49:24.195Z,98722.34
2023-05-15T04:51:55.921Z,98727.97
2023-05-15T04:54:26.959Z,98729.84
2023-05-15T04:56:57.997Z,98734.72
2023-05-15T04:59:29.176Z,98726.50
2023-05-15T05:01:58.434Z,98742.06
2023-05-15T05:04:32.586Z,98738.53
2023-05-15T05:07:04.366Z,98734.91
2023-05-15T05:09:39.440Z,98733.88
2023-05-15T05:12:16.598Z,98739.56
2023-05-15T05:14:47.496Z,98749.53
2023-05-15T05:17:19.323Z,98745.72
2023-05-15T05:19:58.348Z,98738.16
2023-05-15T05:22:30.076Z,98739.81
2023-05-15T05:25:01.754Z,98748.84
2023-05-15T05:27:31.103Z,98745.66
2023-05-15T05:30:07.628Z,98760.81
2023-05-15T05:32:41.874Z,98749.03
2023-05-15T05:35:16.755Z,98764.09
2023-05-15T05:37:47.141Z,98767.78
2023-05-15T05:40:29.235Z,98768.41
2023-05-15T05:43:05.653Z,98767.44
2023-05-15T05:45:38.547Z,98765.53
2023-05-15T05:48:08.144Z,98758.53
2023-05-15T05:50:40.823Z,98764.00
2023-05-15T05:53:17.225Z,98767.00
2023-05-15T05:55:54.761Z,98773.78
2023-05-15T05:58:26.245Z,98760.13
2023-05-15T06:00:55.552Z,98750.44
2023-05-15T06:03:26.631Z,98763.41
2023-05-15T06:05:57.268Z,98757.66
2023-05-15T06:08:27.193Z,98755.41
2023-05-15T06:10:57.555Z,98765.59
2023-05-15T06:13:29.449Z,98752.28
2023-05-15T06:15:58.425Z,98763.94
2023-05-15T06:18:28.972Z,98778.19
2023-05-15T06:21:01.424Z,98759.72
2023-05-15T06:23:31.146Z,98772.03
2023-05-15T06:26:04.524Z,98773.38
2023-05-15T06:28:32.714Z,98766.41
2023-05-15T06:31:01.818Z,98768.06
2023-05-15T06:33:40.170Z,98771.09
2023-05-15T06:36:12.662Z,98761.25
2023-05-15T06:38:42.025Z,98772.06
2023-05-15T06:41:19.070Z,98768.81
2023-05-15T06:43:49.857Z,98772.81
2023-05-15T06:46:20.919Z,98771.56
2023-05-15T06:48:53.016Z,98773.88
2023-05-15T06:51:30.375Z,98777.72
2023-05-15T06:54:03.142Z,98768.25
2023-05-15T06:56:41.652Z,98773.91
2023-05-15T06:59:12.856Z,98783.34
2023-05-15T07:01:43.882Z,98794.59
2023-05-15T07:04:19.868Z,98788.66
2023-05-15T07:06:52.266Z,98796.69
2023-05-15T07:09:23.913Z,98801.84
2023-05-15T07:12:01.772Z,98802.72
2023-05-15T07:14:31.375Z,98808.91
2023-05-15T07:16:59.785Z,98814.44
2023-05-15T07:19:36.140Z,98814.84
2023-05-15T07:22:08.632Z,98810.47
2023-05-15T07:24:48.413Z,98814.13
2023-05-15T07:27:18.845Z,98815.38
2023-05-15T07:29:50.797Z,98815.72
2023-05-15T07:32:20.338Z,98829.41
2023-05-15T07:34:51.747Z,98829.78
2023-05-15T07:37:24.889Z,98825.63
2023-05-15T07:39:56.451Z,98830.72
2023-05-15T07:42:31.645Z,98828.00
2023-05-15T07:45:06.018Z,98824.66
2023-05-15T07:47:43.090Z,98840.50
2023-05-15T07:50:12.156Z,98834.28
2023-05-15T07:52:51.414Z,98841.09
2023-05-15T07:55:20.726Z,98834.22
2023-05-15T07:57:54.026Z,98846.97
2023-05-15T08:00:23.399Z,98842.84
2023-05-15T08:02:51.933Z,98838.09
2023-05-15T08:05:21.427Z,98837.97
2023-05-15T08:08:00.791Z,98842.56
2023-05-15T08:10:28.962Z,98831.84
2023-05-15T08:12:57.676Z,98843.13
2023-05-15T08:15:29.429Z,98851.63
2023-05-15T08:17:58.843Z,98852.88
2023-05-15T08:23:18.146Z,98858.53
2023-05-15T08:25:53.651Z,98850.66
2023-05-15T08:28:23.336Z,98850.47
2023-05-15T08:30:51.613Z,98858.16
2023-05-15T08:33:23.201Z,98857.84
2023-05-15T08:35:58.059Z,98858.44
2023-05-15T08:38:29.893Z,98862.75
2023-05-15T08:41:00.715Z,98858.78
2023-05-15T08:43:39.151Z,98863.53
2023-05-15T08:46:07.934Z,98865.56
2023-05-15T08:48:47.313Z,98868.78
2023-05-15T08:51:21.389Z,98871.25
2023-05-15T08:53:54.713Z,98866.47
2023-05-15T08:56:25.180Z,98867.63
2023-05-15T08:58:53.598Z,98868.97
2023-05-15T09:01:22.364Z,98868.06
2023-05-15T09:03:52.099Z,98876.97
2023-05-15T09:06:20.761Z,98869.34
2023-05-15T09:08:56.248Z,98880.63
2023-05-15T09:11:25.965Z,98886.00
2023-05-15T09:14:04.013Z,98887.84
2023-05-15T09:16:36.116Z,98895.78
2023-05-15T09:19:06.928Z,98891.34
2023-05-15T09:21:37.550Z,98891.88
2023-05-15T09:24:24.580Z,98909.72
2023-05-15T09:27:06.811Z,98906.56
2023-05-15T09:29:37.090Z,98909.91
2023-05-15T09:32:08.336Z,98903.63
2023-05-15T09:34:39.490Z,98883.31
2023-05-15T09:37:11.674Z,98894.00
2023-05-15T09:39:52.567Z,98900.66
2023-05-15T09:42:22.686Z,98892.59
2023-05-15T09:44:56.697Z,98902.16
2023-05-15T09:47:27.823Z,98886.56
2023-05-15T09:49:58.336Z,98893.59
2023-05-15T09:52:26.775Z,98891.44
2023-05-15T09:55:07.540Z,98901.81
2023-05-15T09:57:35.758Z,98891.59
2023-05-15T10:00:12.325Z,98903.03
2023-05-15T10:02:44.486Z,98892.28
2023-05-15T10:05:13.402Z,98881.59
2023-05-15T10:07:41.515Z,98908.69
2023-05-15T10:10:13.511Z,98908.50
2023-05-15T10:12:44.210Z,98901.50
2023-05-15T10:15:18.204Z,98883.31
2023-05-15T10:17:49.035Z,98889.63
2023-05-15T10:20:27.485Z,98887.88
2023-05-15T10:22:59.668Z,98878.25
2023-05-15T10:26:04.140Z,98890.47
2023-05-15T10:28:37.115Z,98899.03
2023-05-15T10:31:08.578Z,98908.38
2023-05-15T10:33:40.258Z,98901.28
2023-05-15T10:36:12.197Z,98895.31
2023-05-15T10:38:43.806Z,98895.28
2023-05-15T10:41:19.465Z,98886.72
2023-05-15T10:43:53.975Z,98881.72
2023-05-15T10:46:28.132Z,98881.59
2023-05-15T10:49:02.717Z,98867.25
2023-05-15T10:51:33.584Z,98879.59
2023-05-15T10:54:03.821Z,98884.91
2023-05-15T10:56:41.274Z,98881.28
2023-05-15T10:59:11.111Z,98882.19
2023-05-15T11:01:49.316Z,98885.34
2023-05-15T11:04:26.862Z,98878.06
2023-05-15T11:07:19.166Z,98880.81
2023-05-15T11:09:48.649Z,98864.03
2023-05-15T11:12:23.256Z,98866.31
2023-05-15T11:15:24.597Z,98847.59
2023-05-15T11:18:08.064Z,98885.66
2023-05-15T11:20:41.337Z,98865.63
2023-05-15T11:23:17.776Z,98864.78
2023-05-15T11:26:02.201Z,98842.03
2023-05-15T11:28:33.177Z,98857.88
2023-05-15T11:31:09.409Z,98862.22
2023-05-15T11:33:47.262Z,98865.63
2023-05-15T11:36:20.104Z,98842.06
2023-05-15T11:38:52.277Z,98825.59
2023-05-15T11:41:29.903Z,98841.38
2023-05-15T11:44:04.649Z,98857.53
2023-05-15T11:46:36.877Z,98849.31
2023-05-15T11:49:04.981Z,98850.47
2023-05-15T11:51:43.331Z,98851.97
2023-05-15T11:54:17.155Z,98855.06
2023-05-15T11:56:48.328Z,98858.22
2023-05-15T11:59:35.631Z,98872.88
2023-05-15T12:02:07.406Z,98870.16
2023-05-15T12:04:38.716Z,98859.13
2023-05-15T12:07:13.353Z,98866.63
2023-05-15T12:09:41.699Z,98852.16
2023-05-15T12:12:17.955Z,98878.44
2023-05-15T12:14:47.762Z,98869.53
2023-05-15T12:17:25.010Z,98871.84
2023-05-15T12:19:53.730Z,98860.72
2023-05-15T12:22:23.031Z,98845.13
2023-05-15T12:25:00.944Z,98853.59
2023-05-15T12:27:29.107Z,98847.44
2023-05-15T12:30:14.506Z,98843.03
2023-05-15T12:32:43.680Z,98840.03
2023-05-15T12:35:16.104Z,98838.13
2023-05-15T12:37:46.582Z,98854.31
2023-05-15T12:40:17.898Z,98868.53
2023-05-15T12:42:47.746Z,98855.53
2023-05-15T12:45:24.185Z,98862.66
2023-05-15T12:47:53.786Z,98833.84
2023-05-15T12:50:26.672Z,98836.22
2023-05-15T12:52:57.631Z,98832.91
2023-05-15T12:55:28.194Z,98858.44
2023-05-15T12:58:00.975Z,98848.50
2023-05-15T13:00:37.807Z,98833.53
2023-05-15T13:03:09.169Z,98828.13
2023-05-15T13:05:39.688Z,98821.69
2023-05-15T13:08:08.438Z,98853.66
2023-05-15T13:10:47.339Z,98824.59
2023-05-15T13:13:16.590Z,98845.78
2023-05-15T13:15:48.909Z,98844.13
2023-05-15T13:18:21.970Z,98858.19
2023-05-15T13:21:01.971Z,98844.09
2023-05-15T13:23:31.889Z,98852.81
2023-05-15T13:25:59.958Z,98858.06
2023-05-15T13:28:32.126Z,98869.84
2023-05-15T13:31:08.760Z,98867.34
2023-05-15T13:33:39.594Z,98864.44
2023-05-15T13:36:08.503Z,98855.94
2023-05-15T13:38:39.239Z,98851.16
2023-05-15T13:41:10.747Z,98852.81
2023-05-15T13:43:41.346Z,98876.81
2023-05-15T13:46:13.129Z,98849.28
2023-05-15T13:48:49.534Z,98870.09
2023-05-15T13:51:20.726Z,98882.53
2023-05-15T13:53:54.202Z,98879.03
2023-05-15T13:56:25.526Z,98863.22
2023-05-15T13:58:55.008Z,98878.81
2023-05-15T14:01:26.904Z,98888.53
2023-05-15T14:03:58.193Z,98874.66
2023-05-15T14:06:28.071Z,98863.88
2023-05-15T14:08:56.780Z,98876.81
2023-05-15T14:11:25.168Z,98863.63
2023-05-15T14:13:54.906Z,98876.66
2023-05-15T14:16:25.499Z,98867.28
2023-05-15T14:18:56.560Z,98856.31
2023-05-15T14:21:25.064Z,98866.34
2023-05-15T14:23:54.785Z,98884.94
2023-05-15T14:26:26.316Z,98888.09
2023-05-15T14:29:03.062Z,98884.97
2023-05-15T14:31:33.356Z,98880.56
2023-05-15T14:34:15.189Z,98867.44
2023-05-15T14:36:43.129Z,98848.47
2023-05-15T14:39:16.687Z,98860.03
2023-05-15T14:41:45.931Z,98870.84
2023-05-15T14:44:16.541Z,98858.97
2023-05-15T14:46:47.449Z,98863.59
2023-05-15T14:49:36.538Z,98868.00
2023-05-15T14:52:10.973Z,98862.50
2023-05-15T14:54:41.232Z,98870.31
2023-05-15T14:57:15.526Z,98869.91
2023-05-15T14:59:43.590Z,98880.28
2023-05-15T15:02:17.148Z,98875.53
2023-05-15T15:04:48.128Z,98881.00
2023-05-15T15:07:22.111Z,98886.03
2023-05-15T15:09:55.172Z,98883.63
2023-05-15T15:12:24.349Z,98867.03
2023-05-15T15:14:56.062Z,98869.53
2023-05-15T15:17:24.112Z,98872.03
2023-05-15T15:19:54.413Z,98870.25
2023-05-15T15:22:31.994Z,98867.16
2023-05-15T15:25:01.434Z,98868.06
2023-05-15T15:27:30.958Z,98871.44
2023-05-15T15:29:58.975Z,98889.63
2023-05-15T15:32:28.933Z,98884.63
2023-05-15T15:34:58.865Z,98875.94
2023-05-15T15:37:29.004Z,98875.75
2023-05-15T15:39:58.576Z,98885.34
2023-05-15T15:42:29.177Z,98886.59
2023-05-15T15:45:08.938Z,98876.59
2023-05-15T15:47:46.783Z,98878.22
2023-05-15T15:50:19.890Z,98887.44
2023-05-15T15:52:48.199Z,98880.13
2023-05-15T15:55:19.370Z,98891.81
2023-05-15T15:57:52.201Z,98884.75
2023-05-15T16:00:23.599Z,98882.91
2023-05-15T16:02:54.037Z,98887.63
2023-05-15T16:05:28.852Z,98881.00
2023-05-15T16:07:57.190Z,98880.50
2023-05-15T16:10:35.880Z,98878.22
2023-05-15T16:13:04.280Z,98869.66
2023-05-15T16:15:40.636Z,98881.94
2023-05-15T16:18:11.713Z,98888.63
2023-05-15T16:20:47.010Z,98890.56
2023-05-15T16:23:28.594Z,98906.06
2023-05-15T16:25:57.825Z,98892.91
2023-05-15T16:28:30.166Z,98895.16
2023-05-15T16:31:00.795Z,98892.31
2023-05-15T16:33:37.962Z,98901.78
2023-05-15T16:36:19.557Z,98887.19
2023-05-15T16:38:56.142Z,98898.84
2023-05-15T16:41:31.136Z,98903.34
2023-05-15T16:44:09.186Z,98906.09
2023-05-15T16:46:48.297Z,98906.66
2023-05-15T16:49:19.425Z,98906.75
2023-05-15T16:51:55.025Z,98902.41
2023-05-15T16:54:23.925Z,98915.56
2023-05-15T16:56:55.005Z,98910.94
2023-05-15T16:59:26.039Z,98911.63
2023-05-15T17:01:59.699Z,98917.44
2023-05-15T17:04:32.745Z,98924.22
2023-05-15T17:07:17.150Z,98915.00
2023-05-15T17:09:51.871Z,98923.75
2023-05-15T17:12:29.266Z,98931.00
2023-05-15T17:15:01.473Z,98933.19
2023-05-15T17:17:38.676Z,98937.53
2023-05-15T17:20:20.212Z,98932.06
2023-05-15T17:22:52.802Z,98937.69
2023-05-15T17:25:26.269Z,98934.00
2023-05-15T17:28:06.573Z,98932.44
2023-05-15T17:30:37.925Z,98937.31
2023-05-15T17:33:06.843Z,98951.72
2023-05-15T17:35:38.742Z,98956.69
2023-05-15T17:38:14.219Z,98961.72
2023-05-15T17:40:44.140Z,98955.09
2023-05-15T17:43:22.987Z,98960.25
2023-05-15T17:45:58.532Z,98961.41
2023-05-15T17:48:30.172Z,98962.91
2023-05-15T17:51:00.638Z,98970.22
2023-05-15T17:53:38.489Z,98968.91
2023-05-15T17:56:21.182Z,98964.97
2023-05-15T17:59:00.902Z,98973.91
2023-05-15T18:01:36.046Z,98976.91
2023-05-15T18:04:07.806Z,98983.94
2023-05-15T18:06:40.408Z,98982.06
2023-05-15T18:09:20.308Z,98976.06
2023-05-15T18:11:53.654Z,98979.63
2023-05-15T18:14:26.078Z,98979.75
2023-05-15T18:17:00.591Z,98976.84
2023-05-15T18:19:38.846Z,98979.25
2023-05-15T18:22:10.427Z,98991.03
2023-05-15T18:24:44.011Z,98991.69
2023-05-15T18:27:27.866Z,98993.03
2023-05-15T18:30:04.197Z,98994.47
2023-05-15T18:32:42.994Z,98999.50
2023-05-15T18:35:15.677Z,98996.91
2023-05-15T18:37:47.152Z,99002.75
2023-05-15T18:40:22.718Z,99006.56
2023-05-15T18:42:58.842Z,99004.28
2023-05-15T18:45:28.283Z,98995.88
2023-05-15T18:48:01.624Z,98999.91
2023-05-15T18:50:40.613Z,98996.09
2023-05-15T18:53:18.616Z,99002.06
2023-05-15T18:56:11.095Z,98985.66
2023-05-15T18:58:51.745Z,99002.28
2023-05-15T19:01:21.602Z,98996.00
2023-05-15T19:03:55.454Z,98998.69
2023-05-15T19:06:25.089Z,98992.03
2023-05-15T19:09:06.029Z,98995.88
2023-05-15T19:11:38.854Z,98987.28
2023-05-15T19:14:24.154Z,98987.31
2023-05-15T19:17:06.608Z,98994.34
2023-05-15T19:19:49.755Z,98995.69
2023-05-15T19:22:26.140Z,99001.84
2023-05-15T19:25:07.706Z,98997.19
2023-05-15T19:27:44.136Z,98992.44
2023-05-15T19:30:15.577Z,98998.28
2023-05-15T19:32:47.584Z,99005.91
2023-05-15T19:35:22.325Z,99008.84
2023-05-15T19:37:59.057Z,99005.69
2023-05-15T19:40:32.337Z,99017.00
2023-05-15T19:43:12.534Z,99012.31
2023-05-15T19:45:43.984Z,99014.69
2023-05-15T19:48:13.639Z,99012.69
2023-05-15T19:50:46.732Z,99022.22
2023-05-15T19:53:20.810Z,99016.31
2023-05-15T19:55:50.457Z,99021.38
2023-05-15T19:58:26.894Z,99015.22
2023-05-15T20:01:03.670Z,99012.47
2023-05-15T20:03:34.742Z,99015.78
2023-05-15T20:06:06.527Z,99023.81
2023-05-15T20:08:39.323Z,99021.38
2023-05-15T20:11:13.782Z,99026.13
2023-05-15T20:14:03.132Z,99023.81
2023-05-15T20:16:36.210Z,99023.81
2023-05-15T20:19:07.153Z,99022.75
2023-05-15T20:21:39.025Z,99029.75
2023-05-15T20:24:13.606Z,99029.22
2023-05-15T20:26:46.469Z,99033.09
2023-05-15T20:29:23.196Z,99032.16
2023-05-15T20:31:54.959Z,99031.50
2023-05-15T20:34:25.036Z,99033.00
2023-05-15T20:37:00.577Z,99043.13
2023-05-15T20:39:35.492Z,99035.38
2023-05-15T20:42:08.295Z,99033.53
2023-05-15T20:44:48.156Z,99030.19
2023-05-15T20:47:29.427Z,99029.91
2023-05-15T20:50:01.255Z,99035.47
2023-05-15T20:52:32.119Z,99020.56
2023-05-15T20:55:02.281Z,99045.66
2023-05-15T20:57:38.300Z,99049.00
2023-05-15T21:00:13.204Z,99047.53
2023-05-15T21:02:50.795Z,99030.38
2023-05-15T21:05:24.865Z,99034.28
2023-05-15T21:07:54.477Z,99029.16
2023-05-15T21:10:24.981Z,99028.53
2023-05-15T21:13:03.818Z,99039.25
2023-05-15T21:15:38.949Z,99032.03
2023-05-15T21:18:11.912Z,99029.09
2023-05-15T21:20:45.620Z,99029.88
2023-05-15T21:23:16.890Z,99035.56
2023-05-15T21:25:45.884Z,99039.63
2023-05-15T21:28:17.432Z,99028.72
2023-05-15T21:31:07.203Z,99031.97
2023-05-15T21:33:37.386Z,99042.97
2023-05-15T21:36:19.153Z,99040.66
2023-05-15T21:38:58.853Z,99039.66
2023-05-15T21:41:28.050Z,99038.16
2023-05-15T21:44:05.221Z,99030.47
2023-05-15T21:46:38.846Z,99046.59
2023-05-15T21:49:15.022Z,99049.56
2023-05-15T21:51:46.642Z,99053.25
2023-05-15T21:54:21.167Z,99041.03
2023-05-15T21:56:52.218Z,99057.16
2023-05-15T21:59:24.352Z,99068.34
2023-05-15T22:02:02.060Z,99073.78
2023-05-15T22:04:39.745Z,99075.53
2023-05-15T22:07:14.425Z,99074.69
2023-05-15T22:09:43.829Z,99068.31
2023-05-15T22:12:20.790Z,99091.38
2023-05-15T22:14:58.892Z,99087.75
2023-05-15T22:17:36.599Z,99090.03
2023-05-15T22:20:11.480Z,99089.50
2023-05-15T22:22:46.405Z,99090.72
2023-05-15T22:25:24.054Z,99083.81
2023-05-15T22:28:03.528Z,99082.34
2023-05-15T22:30:34.374Z,99083.91
2023-05-15T22:33:24.108Z,99091.31
2023-05-15T22:35:55.892Z,99093.84
2023-05-15T22:38:25.637Z,99091.88
2023-05-15T22:40:55.070Z,99080.47
2023-05-15T22:43:26.706Z,99081.41
2023-05-15T22:45:57.793Z,99082.13
2023-05-15T22:48:37.089Z,99074.69
2023-05-15T22:51:06.952Z,99086.00
2023-05-15T22:53:36.349Z,99087.94
2023-05-15T22:56:06.934Z,99090.78
2023-05-15T22:58:37.145Z,99088.78
2023-05-15T23:01:08.119Z,99097.94
2023-05-15T23:03:53.914Z,99084.88
2023-05-15T23:06:31.455Z,99082.03
2023-05-15T23:09:03.553Z,99075.84
2023-05-15T23:11:34.274Z,99078.13
2023-05-15T23:14:03.785Z,99078.84
2023-05-15T23:16:32.886Z,99077.22
2023-05-15T23:19:03.073Z,99081.81
2023-05-15T23:21:43.051Z,99080.81
2023-05-15T23:24:13.931Z,99081.72
2023-05-15T23:26:47.933Z,99088.03
2023-05-15T23:29:21.860Z,99084.09
2023-05-15T23:31:50.855Z,99085.72
2023-05-15T23:34:24.008Z,99081.88
2023-05-15T23:36:55.809Z,99091.56
2023-05-15T23:39:32.296Z,99082.25
2023-05-15T23:42:05.752Z,99082.72
2023-05-15T23:44:34.728Z,99087.97
2023-05-15T23:47:05.294Z,99073.22
2023-05-15T23:49:36.924Z,99081.75
2023-05-15T23:52:08.587Z,99083.38
2023-05-15T23:54:40.503Z,99075.59
2023-05-15T23:57:14.165Z,99084.22
2023-05-15T23:59:45.871Z,99083.72
